Farmersville, Texas
Current Conditions -  °F | °C
As of 6:53 PM on Friday 19 Dec 2014 (Local Time) from KTKI Reporting Station
Overcast Overcast  
Wind Chill: 44°   Ceiling: 1000
Heat Index: 47°   Visibility: 10mi
Dew Point: 44°   Wind: 7mph
Humidity: 90%   Direction: 10°N
Pressure: 30.19"   Gusts: NA
Location:  33.16°N, 96.36°W
Report Text: KTKI 200053Z 01006KT 10SM OVC010 08/07 A3019 RMK AO2 SLP233 T00830067
Loading
Personal Weather Stations






























Interactive Weather Map New forecast layout! Learn more

10-Day Weather Forecast

Advertisements
Track Severe Weather on mobile